sensor_id;sensor_type;location;lat;lon;timestamp;P1;durP1;ratioP1;P2;durP2;ratioP2
25079;SDS011;13071;48.868;9.996;2023-06-04T00:01:22;5.75;;;3.05;;
25079;SDS011;13071;48.868;9.996;2023-06-04T00:03:48;5.35;;;3.47;;
25079;SDS011;13071;48.868;9.996;2023-06-04T00:06:15;5.55;;;3.17;;
25079;SDS011;13071;48.868;9.996;2023-06-04T00:08:43;4.65;;;3.00;;
25079;SDS011;13071;48.868;9.996;2023-06-04T00:11:09;4.80;;;2.85;;
25079;SDS011;13071;48.868;9.996;2023-06-04T00:13:36;4.10;;;2.85;;
25079;SDS011;13071;48.868;9.996;2023-06-04T00:16:02;3.42;;;2.88;;
25079;SDS011;13071;48.868;9.996;2023-06-04T00:18:29;6.93;;;2.67;;
25079;SDS011;13071;48.868;9.996;2023-06-04T00:20:56;4.57;;;2.92;;
25079;SDS011;13071;48.868;9.996;2023-06-04T00:23:22;2.97;;;2.25;;
25079;SDS011;13071;48.868;9.996;2023-06-04T00:25:50;3.97;;;2.80;;
25079;SDS011;13071;48.868;9.996;2023-06-04T00:28:17;3.83;;;2.30;;
25079;SDS011;13071;48.868;9.996;2023-06-04T00:30:43;9.02;;;2.80;;
25079;SDS011;13071;48.868;9.996;2023-06-04T00:33:10;2.42;;;2.15;;
25079;SDS011;13071;48.868;9.996;2023-06-04T00:35:36;2.90;;;2.20;;
25079;SDS011;13071;48.868;9.996;2023-06-04T00:38:03;5.22;;;2.45;;
25079;SDS011;13071;48.868;9.996;2023-06-04T00:40:30;3.45;;;2.10;;
25079;SDS011;13071;48.868;9.996;2023-06-04T00:42:58;6.53;;;2.20;;
25079;SDS011;13071;48.868;9.996;2023-06-04T00:45:24;2.50;;;1.85;;
25079;SDS011;13071;48.868;9.996;2023-06-04T00:47:52;6.85;;;2.20;;
25079;SDS011;13071;48.868;9.996;2023-06-04T00:50:19;5.82;;;2.17;;
25079;SDS011;13071;48.868;9.996;2023-06-04T00:52:47;2.75;;;2.00;;
25079;SDS011;13071;48.868;9.996;2023-06-04T00:55:14;5.25;;;2.40;;
25079;SDS011;13071;48.868;9.996;2023-06-04T00:57:43;4.20;;;1.90;;
25079;SDS011;13071;48.868;9.996;2023-06-04T01:00:11;2.55;;;1.75;;
25079;SDS011;13071;48.868;9.996;2023-06-04T01:02:39;3.40;;;1.98;;
25079;SDS011;13071;48.868;9.996;2023-06-04T01:05:10;5.05;;;1.85;;
25079;SDS011;13071;48.868;9.996;2023-06-04T01:07:41;2.95;;;1.83;;
25079;SDS011;13071;48.868;9.996;2023-06-04T01:10:11;1.60;;;1.50;;
25079;SDS011;13071;48.868;9.996;2023-06-04T01:12:39;2.15;;;1.83;;
25079;SDS011;13071;48.868;9.996;2023-06-04T01:15:06;1.85;;;1.70;;
25079;SDS011;13071;48.868;9.996;2023-06-04T01:17:35;4.75;;;2.10;;
25079;SDS011;13071;48.868;9.996;2023-06-04T01:20:13;3.03;;;2.00;;
25079;SDS011;13071;48.868;9.996;2023-06-04T01:22:48;2.88;;;2.10;;
25079;SDS011;13071;48.868;9.996;2023-06-04T01:25:32;2.67;;;1.73;;
25079;SDS011;13071;48.868;9.996;2023-06-04T01:27:59;5.25;;;2.05;;
25079;SDS011;13071;48.868;9.996;2023-06-04T01:30:29;2.92;;;2.08;;
25079;SDS011;13071;48.868;9.996;2023-06-04T01:32:59;2.08;;;1.85;;
25079;SDS011;13071;48.868;9.996;2023-06-04T01:35:26;4.20;;;2.03;;
25079;SDS011;13071;48.868;9.996;2023-06-04T01:37:56;3.50;;;2.00;;
25079;SDS011;13071;48.868;9.996;2023-06-04T01:40:23;1.95;;;1.75;;
25079;SDS011;13071;48.868;9.996;2023-06-04T01:42:51;3.22;;;1.73;;
25079;SDS011;13071;48.868;9.996;2023-06-04T01:45:18;2.03;;;1.83;;
25079;SDS011;13071;48.868;9.996;2023-06-04T01:47:44;1.90;;;1.58;;
25079;SDS011;13071;48.868;9.996;2023-06-04T01:50:12;2.60;;;2.25;;
25079;SDS011;13071;48.868;9.996;2023-06-04T01:52:39;2.80;;;1.80;;
25079;SDS011;13071;48.868;9.996;2023-06-04T01:55:07;2.53;;;1.83;;
25079;SDS011;13071;48.868;9.996;2023-06-04T01:57:37;1.77;;;1.50;;
25079;SDS011;13071;48.868;9.996;2023-06-04T02:00:04;2.20;;;1.80;;
25079;SDS011;13071;48.868;9.996;2023-06-04T02:02:33;2.33;;;1.75;;
25079;SDS011;13071;48.868;9.996;2023-06-04T02:05:00;2.20;;;1.80;;
25079;SDS011;13071;48.868;9.996;2023-06-04T02:07:29;3.33;;;1.95;;
25079;SDS011;13071;48.868;9.996;2023-06-04T02:09:56;2.47;;;1.98;;
25079;SDS011;13071;48.868;9.996;2023-06-04T02:12:23;3.45;;;1.85;;
25079;SDS011;13071;48.868;9.996;2023-06-04T02:14:49;2.97;;;1.70;;
25079;SDS011;13071;48.868;9.996;2023-06-04T02:17:16;1.70;;;1.60;;
25079;SDS011;13071;48.868;9.996;2023-06-04T02:19:43;2.33;;;1.67;;
25079;SDS011;13071;48.868;9.996;2023-06-04T02:22:14;2.03;;;1.60;;
25079;SDS011;13071;48.868;9.996;2023-06-04T02:24:42;3.60;;;1.42;;
25079;SDS011;13071;48.868;9.996;2023-06-04T02:27:09;2.10;;;1.80;;
25079;SDS011;13071;48.868;9.996;2023-06-04T02:29:36;2.58;;;1.63;;
25079;SDS011;13071;48.868;9.996;2023-06-04T02:32:03;2.78;;;1.67;;
25079;SDS011;13071;48.868;9.996;2023-06-04T02:34:30;2.42;;;1.52;;
25079;SDS011;13071;48.868;9.996;2023-06-04T02:36:57;4.72;;;1.65;;
25079;SDS011;13071;48.868;9.996;2023-06-04T02:39:23;2.45;;;1.80;;
25079;SDS011;13071;48.868;9.996;2023-06-04T02:41:51;5.75;;;2.30;;
25079;SDS011;13071;48.868;9.996;2023-06-04T02:44:18;3.30;;;1.80;;
25079;SDS011;13071;48.868;9.996;2023-06-04T02:46:44;1.38;;;1.27;;
25079;SDS011;13071;48.868;9.996;2023-06-04T02:49:11;5.05;;;1.50;;
25079;SDS011;13071;48.868;9.996;2023-06-04T02:51:38;2.72;;;1.70;;
25079;SDS011;13071;48.868;9.996;2023-06-04T02:54:05;2.10;;;1.75;;
25079;SDS011;13071;48.868;9.996;2023-06-04T02:56:33;1.60;;;1.35;;
25079;SDS011;13071;48.868;9.996;2023-06-04T02:59:01;2.17;;;1.85;;
25079;SDS011;13071;48.868;9.996;2023-06-04T03:01:28;1.67;;;1.58;;
25079;SDS011;13071;48.868;9.996;2023-06-04T03:03:54;4.30;;;1.95;;
25079;SDS011;13071;48.868;9.996;2023-06-04T03:06:22;2.42;;;1.90;;
25079;SDS011;13071;48.868;9.996;2023-06-04T03:08:50;1.83;;;1.65;;
25079;SDS011;13071;48.868;9.996;2023-06-04T03:11:17;2.33;;;1.52;;
25079;SDS011;13071;48.868;9.996;2023-06-04T03:13:44;2.10;;;1.55;;
25079;SDS011;13071;48.868;9.996;2023-06-04T03:16:12;1.60;;;1.50;;
25079;SDS011;13071;48.868;9.996;2023-06-04T03:18:39;3.15;;;1.90;;
25079;SDS011;13071;48.868;9.996;2023-06-04T03:21:06;3.92;;;1.25;;
25079;SDS011;13071;48.868;9.996;2023-06-04T03:23:33;3.83;;;1.60;;
25079;SDS011;13071;48.868;9.996;2023-06-04T03:26:00;4.70;;;1.80;;
25079;SDS011;13071;48.868;9.996;2023-06-04T03:28:27;2.22;;;1.65;;
25079;SDS011;13071;48.868;9.996;2023-06-04T03:30:54;2.22;;;1.30;;
25079;SDS011;13071;48.868;9.996;2023-06-04T03:33:22;4.00;;;1.60;;
25079;SDS011;13071;48.868;9.996;2023-06-04T03:35:49;2.88;;;1.75;;
25079;SDS011;13071;48.868;9.996;2023-06-04T03:38:16;2.60;;;1.65;;
25079;SDS011;13071;48.868;9.996;2023-06-04T03:40:42;1.60;;;1.30;;
25079;SDS011;13071;48.868;9.996;2023-06-04T03:43:09;2.90;;;1.40;;
25079;SDS011;13071;48.868;9.996;2023-06-04T03:45:36;1.83;;;1.50;;
25079;SDS011;13071;48.868;9.996;2023-06-04T03:48:03;8.77;;;2.03;;
25079;SDS011;13071;48.868;9.996;2023-06-04T03:50:31;2.28;;;1.77;;
25079;SDS011;13071;48.868;9.996;2023-06-04T03:52:57;4.45;;;1.75;;
25079;SDS011;13071;48.868;9.996;2023-06-04T03:55:25;1.95;;;1.73;;
25079;SDS011;13071;48.868;9.996;2023-06-04T03:57:52;4.30;;;1.50;;
25079;SDS011;13071;48.868;9.996;2023-06-04T04:00:18;4.82;;;1.70;;
25079;SDS011;13071;48.868;9.996;2023-06-04T04:02:45;2.25;;;1.55;;
25079;SDS011;13071;48.868;9.996;2023-06-04T04:05:11;4.72;;;1.50;;
25079;SDS011;13071;48.868;9.996;2023-06-04T04:07:39;2.30;;;1.77;;
25079;SDS011;13071;48.868;9.996;2023-06-04T04:10:06;3.55;;;1.73;;
25079;SDS011;13071;48.868;9.996;2023-06-04T04:12:35;1.63;;;1.50;;
25079;SDS011;13071;48.868;9.996;2023-06-04T04:15:01;1.63;;;1.40;;
25079;SDS011;13071;48.868;9.996;2023-06-04T04:17:29;2.15;;;1.42;;
25079;SDS011;13071;48.868;9.996;2023-06-04T04:19:56;1.88;;;1.40;;
25079;SDS011;13071;48.868;9.996;2023-06-04T04:22:22;2.38;;;1.55;;
25079;SDS011;13071;48.868;9.996;2023-06-04T04:24:51;3.35;;;1.40;;
25079;SDS011;13071;48.868;9.996;2023-06-04T04:27:17;2.95;;;1.60;;
25079;SDS011;13071;48.868;9.996;2023-06-04T04:29:44;5.97;;;1.80;;
25079;SDS011;13071;48.868;9.996;2023-06-04T04:32:13;1.67;;;1.55;;
25079;SDS011;13071;48.868;9.996;2023-06-04T04:34:49;1.70;;;1.45;;
25079;SDS011;13071;48.868;9.996;2023-06-04T04:37:17;2.05;;;1.70;;
25079;SDS011;13071;48.868;9.996;2023-06-04T04:39:46;5.00;;;1.70;;
25079;SDS011;13071;48.868;9.996;2023-06-04T04:42:14;4.13;;;2.10;;
25079;SDS011;13071;48.868;9.996;2023-06-04T04:44:40;2.22;;;1.83;;
25079;SDS011;13071;48.868;9.996;2023-06-04T04:47:07;2.78;;;1.65;;
25079;SDS011;13071;48.868;9.996;2023-06-04T04:49:33;3.72;;;1.70;;
25079;SDS011;13071;48.868;9.996;2023-06-04T04:52:00;1.70;;;1.60;;
25079;SDS011;13071;48.868;9.996;2023-06-04T04:54:26;1.50;;;1.40;;
25079;SDS011;13071;48.868;9.996;2023-06-04T04:56:53;1.70;;;1.60;;
25079;SDS011;13071;48.868;9.996;2023-06-04T04:59:21;2.85;;;1.60;;
25079;SDS011;13071;48.868;9.996;2023-06-04T05:01:47;2.33;;;1.40;;
25079;SDS011;13071;48.868;9.996;2023-06-04T05:04:14;5.47;;;2.00;;
25079;SDS011;13071;48.868;9.996;2023-06-04T05:06:40;1.85;;;1.48;;
25079;SDS011;13071;48.868;9.996;2023-06-04T05:09:07;5.95;;;1.60;;
25079;SDS011;13071;48.868;9.996;2023-06-04T05:11:34;2.03;;;1.60;;
25079;SDS011;13071;48.868;9.996;2023-06-04T05:14:00;2.75;;;1.50;;
25079;SDS011;13071;48.868;9.996;2023-06-04T05:16:28;5.30;;;1.50;;
25079;SDS011;13071;48.868;9.996;2023-06-04T05:18:55;1.85;;;1.48;;
25079;SDS011;13071;48.868;9.996;2023-06-04T05:21:22;2.72;;;1.48;;
25079;SDS011;13071;48.868;9.996;2023-06-04T05:23:50;2.05;;;1.75;;
25079;SDS011;13071;48.868;9.996;2023-06-04T05:26:16;2.80;;;1.50;;
25079;SDS011;13071;48.868;9.996;2023-06-04T05:28:43;3.20;;;1.63;;
25079;SDS011;13071;48.868;9.996;2023-06-04T05:31:09;2.17;;;1.67;;
25079;SDS011;13071;48.868;9.996;2023-06-04T05:33:39;1.92;;;1.40;;
25079;SDS011;13071;48.868;9.996;2023-06-04T05:36:06;1.70;;;1.30;;
25079;SDS011;13071;48.868;9.996;2023-06-04T05:38:32;5.38;;;1.52;;
25079;SDS011;13071;48.868;9.996;2023-06-04T05:41:00;1.63;;;1.50;;
25079;SDS011;13071;48.868;9.996;2023-06-04T05:43:27;1.33;;;1.20;;
25079;SDS011;13071;48.868;9.996;2023-06-04T05:45:53;3.55;;;1.58;;
25079;SDS011;13071;48.868;9.996;2023-06-04T05:48:20;5.30;;;2.05;;
25079;SDS011;13071;48.868;9.996;2023-06-04T05:50:48;2.05;;;1.65;;
25079;SDS011;13071;48.868;9.996;2023-06-04T05:53:15;4.05;;;1.92;;
25079;SDS011;13071;48.868;9.996;2023-06-04T05:55:42;2.67;;;1.77;;
25079;SDS011;13071;48.868;9.996;2023-06-04T05:58:09;2.22;;;1.60;;
25079;SDS011;13071;48.868;9.996;2023-06-04T06:00:35;3.00;;;1.75;;
25079;SDS011;13071;48.868;9.996;2023-06-04T06:03:03;3.00;;;1.60;;
25079;SDS011;13071;48.868;9.996;2023-06-04T06:05:31;3.92;;;1.63;;
25079;SDS011;13071;48.868;9.996;2023-06-04T06:07:59;2.35;;;1.50;;
25079;SDS011;13071;48.868;9.996;2023-06-04T06:10:26;4.05;;;1.85;;
25079;SDS011;13071;48.868;9.996;2023-06-04T06:12:53;2.08;;;1.45;;
25079;SDS011;13071;48.868;9.996;2023-06-04T06:15:20;1.73;;;1.30;;
25079;SDS011;13071;48.868;9.996;2023-06-04T06:17:46;3.20;;;1.50;;
25079;SDS011;13071;48.868;9.996;2023-06-04T06:20:13;4.25;;;1.55;;
25079;SDS011;13071;48.868;9.996;2023-06-04T06:22:42;2.50;;;1.58;;
25079;SDS011;13071;48.868;9.996;2023-06-04T06:25:10;2.67;;;1.45;;
25079;SDS011;13071;48.868;9.996;2023-06-04T06:27:38;1.98;;;1.70;;
25079;SDS011;13071;48.868;9.996;2023-06-04T06:30:06;2.92;;;1.50;;
25079;SDS011;13071;48.868;9.996;2023-06-04T06:32:33;3.08;;;1.90;;
25079;SDS011;13071;48.868;9.996;2023-06-04T06:35:00;2.60;;;1.70;;
25079;SDS011;13071;48.868;9.996;2023-06-04T06:37:28;3.15;;;1.75;;
25079;SDS011;13071;48.868;9.996;2023-06-04T06:39:54;1.70;;;1.60;;
25079;SDS011;13071;48.868;9.996;2023-06-04T06:42:23;1.67;;;1.58;;
25079;SDS011;13071;48.868;9.996;2023-06-04T06:44:50;1.80;;;1.67;;
25079;SDS011;13071;48.868;9.996;2023-06-04T06:47:17;3.42;;;1.77;;
25079;SDS011;13071;48.868;9.996;2023-06-04T06:49:43;3.65;;;1.98;;
25079;SDS011;13071;48.868;9.996;2023-06-04T06:52:10;2.70;;;1.80;;
25079;SDS011;13071;48.868;9.996;2023-06-04T06:54:36;2.03;;;1.60;;
25079;SDS011;13071;48.868;9.996;2023-06-04T06:57:03;1.75;;;1.48;;
25079;SDS011;13071;48.868;9.996;2023-06-04T06:59:35;2.08;;;1.60;;
25079;SDS011;13071;48.868;9.996;2023-06-04T07:02:01;2.47;;;1.70;;
25079;SDS011;13071;48.868;9.996;2023-06-04T07:04:28;3.90;;;1.55;;
25079;SDS011;13071;48.868;9.996;2023-06-04T07:06:55;1.92;;;1.50;;
25079;SDS011;13071;48.868;9.996;2023-06-04T07:09:21;1.70;;;1.50;;
25079;SDS011;13071;48.868;9.996;2023-06-04T07:11:48;2.53;;;1.90;;
25079;SDS011;13071;48.868;9.996;2023-06-04T07:14:14;3.92;;;1.98;;
25079;SDS011;13071;48.868;9.996;2023-06-04T07:16:42;2.13;;;1.80;;
25079;SDS011;13071;48.868;9.996;2023-06-04T07:19:09;4.13;;;2.00;;
25079;SDS011;13071;48.868;9.996;2023-06-04T07:21:35;3.47;;;1.60;;
25079;SDS011;13071;48.868;9.996;2023-06-04T07:24:02;1.58;;;1.40;;
25079;SDS011;13071;48.868;9.996;2023-06-04T07:26:29;1.80;;;1.70;;
25079;SDS011;13071;48.868;9.996;2023-06-04T07:28:57;3.17;;;1.75;;
25079;SDS011;13071;48.868;9.996;2023-06-04T07:31:23;3.25;;;2.05;;
25079;SDS011;13071;48.868;9.996;2023-06-04T07:33:51;3.53;;;2.17;;
25079;SDS011;13071;48.868;9.996;2023-06-04T07:36:18;3.95;;;1.73;;
25079;SDS011;13071;48.868;9.996;2023-06-04T07:38:45;2.45;;;2.25;;
25079;SDS011;13071;48.868;9.996;2023-06-04T07:41:12;3.67;;;1.90;;
25079;SDS011;13071;48.868;9.996;2023-06-04T07:43:38;4.35;;;1.80;;
25079;SDS011;13071;48.868;9.996;2023-06-04T07:46:05;1.98;;;1.80;;
25079;SDS011;13071;48.868;9.996;2023-06-04T07:48:32;6.43;;;2.15;;
25079;SDS011;13071;48.868;9.996;2023-06-04T07:51:00;3.42;;;2.10;;
25079;SDS011;13071;48.868;9.996;2023-06-04T07:53:29;3.38;;;1.88;;
25079;SDS011;13071;48.868;9.996;2023-06-04T07:55:56;3.65;;;1.70;;
25079;SDS011;13071;48.868;9.996;2023-06-04T07:58:23;3.03;;;1.83;;
25079;SDS011;13071;48.868;9.996;2023-06-04T08:00:50;4.75;;;2.33;;
25079;SDS011;13071;48.868;9.996;2023-06-04T08:03:17;2.05;;;1.85;;
25079;SDS011;13071;48.868;9.996;2023-06-04T08:05:45;2.85;;;2.10;;
25079;SDS011;13071;48.868;9.996;2023-06-04T08:08:13;3.47;;;2.10;;
25079;SDS011;13071;48.868;9.996;2023-06-04T08:10:40;2.92;;;2.00;;
25079;SDS011;13071;48.868;9.996;2023-06-04T08:13:06;2.53;;;2.00;;
25079;SDS011;13071;48.868;9.996;2023-06-04T08:15:34;2.47;;;1.92;;
25079;SDS011;13071;48.868;9.996;2023-06-04T08:18:01;6.38;;;1.90;;
25079;SDS011;13071;48.868;9.996;2023-06-04T08:20:28;3.63;;;1.90;;
25079;SDS011;13071;48.868;9.996;2023-06-04T08:22:54;2.25;;;1.83;;
25079;SDS011;13071;48.868;9.996;2023-06-04T08:25:25;4.32;;;1.95;;
25079;SDS011;13071;48.868;9.996;2023-06-04T08:27:52;2.95;;;1.95;;
25079;SDS011;13071;48.868;9.996;2023-06-04T08:30:18;4.18;;;2.40;;
25079;SDS011;13071;48.868;9.996;2023-06-04T08:32:45;2.22;;;2.03;;
25079;SDS011;13071;48.868;9.996;2023-06-04T08:35:11;4.28;;;2.05;;
25079;SDS011;13071;48.868;9.996;2023-06-04T08:37:38;2.55;;;1.98;;
25079;SDS011;13071;48.868;9.996;2023-06-04T08:40:05;5.38;;;2.42;;
25079;SDS011;13071;48.868;9.996;2023-06-04T08:42:36;3.58;;;1.98;;
25079;SDS011;13071;48.868;9.996;2023-06-04T08:45:06;2.10;;;1.90;;
25079;SDS011;13071;48.868;9.996;2023-06-04T08:47:37;3.33;;;1.98;;
25079;SDS011;13071;48.868;9.996;2023-06-04T08:50:06;4.45;;;2.10;;
25079;SDS011;13071;48.868;9.996;2023-06-04T08:52:37;3.42;;;2.47;;
25079;SDS011;13071;48.868;9.996;2023-06-04T08:55:04;2.15;;;1.95;;
25079;SDS011;13071;48.868;9.996;2023-06-04T08:57:31;2.10;;;1.98;;
25079;SDS011;13071;48.868;9.996;2023-06-04T08:59:59;4.35;;;2.22;;
25079;SDS011;13071;48.868;9.996;2023-06-04T09:02:27;2.35;;;1.90;;
25079;SDS011;13071;48.868;9.996;2023-06-04T09:04:53;3.00;;;2.10;;
25079;SDS011;13071;48.868;9.996;2023-06-04T09:07:20;2.03;;;1.80;;
25079;SDS011;13071;48.868;9.996;2023-06-04T09:09:47;2.80;;;2.15;;
25079;SDS011;13071;48.868;9.996;2023-06-04T09:12:16;5.22;;;2.10;;
25079;SDS011;13071;48.868;9.996;2023-06-04T09:14:47;3.97;;;2.00;;
25079;SDS011;13071;48.868;9.996;2023-06-04T09:17:16;2.15;;;1.90;;
25079;SDS011;13071;48.868;9.996;2023-06-04T09:19:47;2.85;;;2.03;;
25079;SDS011;13071;48.868;9.996;2023-06-04T09:22:14;3.13;;;2.17;;
25079;SDS011;13071;48.868;9.996;2023-06-04T09:24:41;2.90;;;2.05;;
25079;SDS011;13071;48.868;9.996;2023-06-04T09:27:11;4.05;;;2.17;;
25079;SDS011;13071;48.868;9.996;2023-06-04T09:29:38;2.97;;;2.38;;
25079;SDS011;13071;48.868;9.996;2023-06-04T09:32:05;3.63;;;2.05;;
25079;SDS011;13071;48.868;9.996;2023-06-04T09:34:33;3.60;;;2.55;;
25079;SDS011;13071;48.868;9.996;2023-06-04T09:37:01;2.83;;;2.50;;
25079;SDS011;13071;48.868;9.996;2023-06-04T09:39:29;5.63;;;2.28;;
25079;SDS011;13071;48.868;9.996;2023-06-04T09:41:58;4.25;;;2.30;;
25079;SDS011;13071;48.868;9.996;2023-06-04T09:44:26;9.00;;;2.47;;
25079;SDS011;13071;48.868;9.996;2023-06-04T09:46:54;2.55;;;2.20;;
25079;SDS011;13071;48.868;9.996;2023-06-04T09:49:20;2.78;;;2.10;;
25079;SDS011;13071;48.868;9.996;2023-06-04T09:51:48;5.60;;;2.10;;
25079;SDS011;13071;48.868;9.996;2023-06-04T09:54:15;4.20;;;2.20;;
25079;SDS011;13071;48.868;9.996;2023-06-04T09:56:42;2.80;;;2.25;;
25079;SDS011;13071;48.868;9.996;2023-06-04T09:59:09;3.45;;;2.35;;
25079;SDS011;13071;48.868;9.996;2023-06-04T10:01:38;2.95;;;2.33;;
25079;SDS011;13071;48.868;9.996;2023-06-04T10:04:07;3.90;;;2.17;;
25079;SDS011;13071;48.868;9.996;2023-06-04T10:06:36;3.00;;;2.63;;
25079;SDS011;13071;48.868;9.996;2023-06-04T10:09:07;2.88;;;2.25;;
25079;SDS011;13071;48.868;9.996;2023-06-04T10:11:35;2.30;;;2.10;;
25079;SDS011;13071;48.868;9.996;2023-06-04T10:14:08;3.63;;;2.35;;
25079;SDS011;13071;48.868;9.996;2023-06-04T10:16:42;5.63;;;2.50;;
25079;SDS011;13071;48.868;9.996;2023-06-04T10:19:09;6.70;;;2.50;;
25079;SDS011;13071;48.868;9.996;2023-06-04T10:21:36;3.55;;;2.50;;
25079;SDS011;13071;48.868;9.996;2023-06-04T10:24:04;5.05;;;2.40;;
25079;SDS011;13071;48.868;9.996;2023-06-04T10:26:33;4.53;;;2.30;;
25079;SDS011;13071;48.868;9.996;2023-06-04T10:29:00;3.90;;;2.35;;
25079;SDS011;13071;48.868;9.996;2023-06-04T10:31:28;2.30;;;2.20;;
25079;SDS011;13071;48.868;9.996;2023-06-04T10:33:55;3.53;;;2.53;;
25079;SDS011;13071;48.868;9.996;2023-06-04T10:36:22;4.28;;;2.70;;
25079;SDS011;13071;48.868;9.996;2023-06-04T10:38:50;3.83;;;2.28;;
25079;SDS011;13071;48.868;9.996;2023-06-04T10:41:19;4.15;;;2.55;;
25079;SDS011;13071;48.868;9.996;2023-06-04T10:43:47;3.38;;;2.50;;
25079;SDS011;13071;48.868;9.996;2023-06-04T10:46:16;3.42;;;2.30;;
25079;SDS011;13071;48.868;9.996;2023-06-04T10:48:47;3.90;;;2.83;;
25079;SDS011;13071;48.868;9.996;2023-06-04T10:51:15;5.25;;;2.70;;
25079;SDS011;13071;48.868;9.996;2023-06-04T10:53:42;4.03;;;2.53;;
25079;SDS011;13071;48.868;9.996;2023-06-04T10:56:09;4.93;;;2.00;;
25079;SDS011;13071;48.868;9.996;2023-06-04T10:58:37;4.32;;;3.00;;
25079;SDS011;13071;48.868;9.996;2023-06-04T11:01:03;4.03;;;2.30;;
25079;SDS011;13071;48.868;9.996;2023-06-04T11:03:39;6.40;;;2.70;;
25079;SDS011;13071;48.868;9.996;2023-06-04T11:06:14;3.78;;;2.65;;
25079;SDS011;13071;48.868;9.996;2023-06-04T11:08:42;4.07;;;2.75;;
25079;SDS011;13071;48.868;9.996;2023-06-04T11:11:11;4.78;;;2.45;;
25079;SDS011;13071;48.868;9.996;2023-06-04T11:13:40;5.13;;;2.55;;
25079;SDS011;13071;48.868;9.996;2023-06-04T11:16:16;3.92;;;2.70;;
25079;SDS011;13071;48.868;9.996;2023-06-04T11:18:43;3.30;;;2.70;;
25079;SDS011;13071;48.868;9.996;2023-06-04T11:21:10;4.25;;;2.50;;
25079;SDS011;13071;48.868;9.996;2023-06-04T11:23:39;6.03;;;2.60;;
25079;SDS011;13071;48.868;9.996;2023-06-04T11:26:06;3.40;;;2.47;;
25079;SDS011;13071;48.868;9.996;2023-06-04T11:28:33;4.88;;;2.53;;
25079;SDS011;13071;48.868;9.996;2023-06-04T11:31:01;4.13;;;2.60;;
25079;SDS011;13071;48.868;9.996;2023-06-04T11:33:40;5.57;;;2.60;;
25079;SDS011;13071;48.868;9.996;2023-06-04T11:36:08;5.25;;;3.28;;
25079;SDS011;13071;48.868;9.996;2023-06-04T11:38:35;3.65;;;3.00;;
25079;SDS011;13071;48.868;9.996;2023-06-04T11:41:01;3.92;;;2.65;;
25079;SDS011;13071;48.868;9.996;2023-06-04T11:43:30;3.17;;;2.35;;
25079;SDS011;13071;48.868;9.996;2023-06-04T11:45:58;3.97;;;2.67;;
25079;SDS011;13071;48.868;9.996;2023-06-04T11:48:26;8.55;;;2.83;;
25079;SDS011;13071;48.868;9.996;2023-06-04T11:50:53;4.20;;;2.65;;
25079;SDS011;13071;48.868;9.996;2023-06-04T11:53:20;4.85;;;2.88;;
25079;SDS011;13071;48.868;9.996;2023-06-04T11:55:46;8.27;;;2.65;;
25079;SDS011;13071;48.868;9.996;2023-06-04T11:58:13;7.00;;;2.78;;
25079;SDS011;13071;48.868;9.996;2023-06-04T12:00:40;3.13;;;2.47;;
25079;SDS011;13071;48.868;9.996;2023-06-04T12:03:07;4.13;;;2.78;;
25079;SDS011;13071;48.868;9.996;2023-06-04T12:05:35;6.20;;;2.80;;
25079;SDS011;13071;48.868;9.996;2023-06-04T12:08:05;4.90;;;2.45;;
25079;SDS011;13071;48.868;9.996;2023-06-04T12:10:37;3.38;;;2.45;;
25079;SDS011;13071;48.868;9.996;2023-06-04T12:13:04;4.40;;;2.78;;
25079;SDS011;13071;48.868;9.996;2023-06-04T12:15:31;4.97;;;2.92;;
25079;SDS011;13071;48.868;9.996;2023-06-04T12:17:58;4.95;;;2.65;;
25079;SDS011;13071;48.868;9.996;2023-06-04T12:20:32;3.70;;;2.53;;
25079;SDS011;13071;48.868;9.996;2023-06-04T12:23:01;5.78;;;2.63;;
25079;SDS011;13071;48.868;9.996;2023-06-04T12:25:28;5.07;;;2.95;;
25079;SDS011;13071;48.868;9.996;2023-06-04T12:27:55;4.53;;;2.90;;
25079;SDS011;13071;48.868;9.996;2023-06-04T12:30:22;4.50;;;2.38;;
25079;SDS011;13071;48.868;9.996;2023-06-04T12:32:49;4.32;;;2.75;;
25079;SDS011;13071;48.868;9.996;2023-06-04T12:35:16;4.25;;;2.75;;
25079;SDS011;13071;48.868;9.996;2023-06-04T12:37:43;6.70;;;2.78;;
25079;SDS011;13071;48.868;9.996;2023-06-04T12:40:11;3.42;;;2.63;;
25079;SDS011;13071;48.868;9.996;2023-06-04T12:42:38;4.32;;;2.92;;
25079;SDS011;13071;48.868;9.996;2023-06-04T12:45:05;3.08;;;2.63;;
25079;SDS011;13071;48.868;9.996;2023-06-04T12:47:32;5.85;;;2.42;;
25079;SDS011;13071;48.868;9.996;2023-06-04T12:49:59;5.85;;;2.70;;
25079;SDS011;13071;48.868;9.996;2023-06-04T12:52:26;4.03;;;2.97;;
25079;SDS011;13071;48.868;9.996;2023-06-04T12:54:53;4.30;;;2.78;;
25079;SDS011;13071;48.868;9.996;2023-06-04T12:57:20;5.10;;;3.10;;
25079;SDS011;13071;48.868;9.996;2023-06-04T12:59:47;3.17;;;2.50;;
25079;SDS011;13071;48.868;9.996;2023-06-04T13:02:14;5.53;;;2.80;;
25079;SDS011;13071;48.868;9.996;2023-06-04T13:04:40;4.65;;;2.70;;
25079;SDS011;13071;48.868;9.996;2023-06-04T13:07:09;8.70;;;2.55;;
25079;SDS011;13071;48.868;9.996;2023-06-04T13:09:36;3.25;;;2.42;;
25079;SDS011;13071;48.868;9.996;2023-06-04T13:12:02;4.10;;;3.03;;
25079;SDS011;13071;48.868;9.996;2023-06-04T13:14:32;2.53;;;2.30;;
25079;SDS011;13071;48.868;9.996;2023-06-04T13:16:59;3.88;;;2.35;;
25079;SDS011;13071;48.868;9.996;2023-06-04T13:19:26;4.18;;;2.85;;
25079;SDS011;13071;48.868;9.996;2023-06-04T13:21:52;4.32;;;2.55;;
25079;SDS011;13071;48.868;9.996;2023-06-04T13:24:19;7.43;;;2.42;;
25079;SDS011;13071;48.868;9.996;2023-06-04T13:26:45;5.60;;;2.63;;
25079;SDS011;13071;48.868;9.996;2023-06-04T13:29:12;4.85;;;2.80;;
25079;SDS011;13071;48.868;9.996;2023-06-04T13:31:42;2.75;;;2.20;;
25079;SDS011;13071;48.868;9.996;2023-06-04T13:34:09;3.67;;;2.65;;
25079;SDS011;13071;48.868;9.996;2023-06-04T13:36:35;6.43;;;3.00;;
25079;SDS011;13071;48.868;9.996;2023-06-04T13:39:02;6.50;;;3.13;;
25079;SDS011;13071;48.868;9.996;2023-06-04T13:41:29;3.15;;;2.63;;
25079;SDS011;13071;48.868;9.996;2023-06-04T13:43:55;8.15;;;2.92;;
25079;SDS011;13071;48.868;9.996;2023-06-04T13:46:22;3.72;;;2.97;;
25079;SDS011;13071;48.868;9.996;2023-06-04T13:48:50;5.72;;;2.80;;
25079;SDS011;13071;48.868;9.996;2023-06-04T13:51:16;3.58;;;2.70;;
25079;SDS011;13071;48.868;9.996;2023-06-04T13:53:43;5.80;;;2.40;;
25079;SDS011;13071;48.868;9.996;2023-06-04T13:56:09;3.28;;;2.40;;
25079;SDS011;13071;48.868;9.996;2023-06-04T13:58:36;4.13;;;2.63;;
25079;SDS011;13071;48.868;9.996;2023-06-04T14:01:03;2.63;;;2.30;;
25079;SDS011;13071;48.868;9.996;2023-06-04T14:03:30;2.65;;;2.30;;
25079;SDS011;13071;48.868;9.996;2023-06-04T14:05:57;2.78;;;2.20;;
25079;SDS011;13071;48.868;9.996;2023-06-04T14:08:25;3.15;;;2.40;;
25079;SDS011;13071;48.868;9.996;2023-06-04T14:10:53;3.05;;;2.20;;
25079;SDS011;13071;48.868;9.996;2023-06-04T14:13:20;2.53;;;2.25;;
25079;SDS011;13071;48.868;9.996;2023-06-04T14:15:46;3.70;;;2.22;;
25079;SDS011;13071;48.868;9.996;2023-06-04T14:18:13;6.40;;;2.83;;
25079;SDS011;13071;48.868;9.996;2023-06-04T14:20:39;2.50;;;2.30;;
25079;SDS011;13071;48.868;9.996;2023-06-04T14:23:07;2.92;;;2.65;;
25079;SDS011;13071;48.868;9.996;2023-06-04T14:25:34;3.97;;;2.40;;
25079;SDS011;13071;48.868;9.996;2023-06-04T14:28:01;3.30;;;2.38;;
25079;SDS011;13071;48.868;9.996;2023-06-04T14:30:28;2.50;;;2.08;;
25079;SDS011;13071;48.868;9.996;2023-06-04T14:32:54;5.88;;;2.40;;
25079;SDS011;13071;48.868;9.996;2023-06-04T14:35:21;5.20;;;2.53;;
25079;SDS011;13071;48.868;9.996;2023-06-04T14:37:48;2.97;;;2.42;;
25079;SDS011;13071;48.868;9.996;2023-06-04T14:40:16;3.65;;;2.53;;
25079;SDS011;13071;48.868;9.996;2023-06-04T14:42:42;4.53;;;2.67;;
25079;SDS011;13071;48.868;9.996;2023-06-04T14:45:09;2.60;;;2.38;;
25079;SDS011;13071;48.868;9.996;2023-06-04T14:47:35;6.13;;;2.72;;
25079;SDS011;13071;48.868;9.996;2023-06-04T14:50:02;4.30;;;2.67;;